Time;durP1;ratioP1;P1;durP2;ratioP2;P2;SDS_P1;SDS_P2;PMS_P1;PMS_P2;Temp;Humidity;BMP_temperature;BMP_pressure;BME280_temperature;BME280_humidity;BME280_pressure;Samples;Min_cycle;Max_cycle;Signal;HPM_P1;HPM_P2
2022/01/03 00:02:06;;;;;;;4.90;2.00;;;10.90;99.90;;;;;;4934427;29;20238;-75
2022/01/03 00:04:31;;;;;;;5.37;2.00;;;10.90;14.50;;;;;;4933957;29;20187;-76
2022/01/03 00:06:57;;;;;;;4.77;1.97;;;10.90;99.90;;;;;;4934492;29;20197;-75
2022/01/03 00:09:23;;;;;;;4.53;2.00;;;10.80;99.90;;;;;;4934286;29;20225;-76
2022/01/03 00:11:48;;;;;;;6.50;2.20;;;10.80;1.00;;;;;;4934336;29;20187;-75
2022/01/03 00:14:14;;;;;;;5.37;2.10;;;10.80;1.00;;;;;;4934030;29;20191;-75
2022/01/03 00:16:39;;;;;;;3.47;2.00;;;10.80;1.00;;;;;;4934077;29;20555;-74
2022/01/03 00:19:05;;;;;;;6.27;2.00;;;10.90;99.90;;;;;;4934257;29;20556;-75
2022/01/03 00:21:42;;;;;;;4.80;2.20;;;10.90;99.90;;;;;;4934374;29;20171;-75
2022/01/03 00:24:10;;;;;;;5.20;2.17;;;10.90;99.90;;;;;;4934291;29;20197;-74
2022/01/03 00:26:37;;;;;;;5.57;2.20;;;10.90;99.90;;;;;;4933551;29;20263;-74
2022/01/03 00:29:25;;;;;;;6.10;1.93;;;10.90;63.30;;;;;;4934316;29;20222;-75
2022/01/03 00:31:52;;;;;;;6.10;2.20;;;11.00;1.00;;;;;;4934142;29;20175;-73
2022/01/03 00:34:17;;;;;;;4.17;2.00;;;11.00;1.00;;;;;;4933841;29;20246;-73
2022/01/03 00:36:45;;;;;;;9.23;2.40;;;10.90;99.90;;;;;;4933731;29;20668;-74
2022/01/03 00:39:12;;;;;;;7.10;2.13;;;11.00;58.60;;;;;;4934017;29;20175;-74
2022/01/03 00:41:39;;;;;;;4.97;2.50;;;10.90;99.90;;;;;;4934287;29;20266;-75
2022/01/03 00:44:06;;;;;;;7.47;2.47;;;10.90;99.90;;;;;;4933921;29;20179;-74
2022/01/03 00:46:33;;;;;;;4.60;2.37;;;10.80;99.90;;;;;;4933421;29;20273;-74
2022/01/03 00:49:00;;;;;;;6.23;2.27;;;10.80;1.00;;;;;;4933975;29;20274;-74
2022/01/03 00:51:26;;;;;;;5.97;2.17;;;10.80;1.00;;;;;;4937056;29;20671;-74
2022/01/03 00:53:51;;;;;;;4.23;1.90;;;10.80;99.90;;;;;;4937767;29;20184;-74
2022/01/03 00:56:27;;;;;;;4.33;2.20;;;10.70;1.00;;;;;;4937166;29;20683;-75
2022/01/03 00:59:00;;;;;;;5.37;2.00;;;10.70;1.00;;;;;;4937596;29;20233;-74
2022/01/03 01:01:26;;;;;;;3.17;1.97;;;10.80;92.80;;;;;;4937489;29;20183;-74
2022/01/03 01:03:54;;;;;;;5.67;2.10;;;10.70;99.90;;;;;;4937427;29;20187;-74
2022/01/03 01:06:21;;;;;;;3.67;2.00;;;10.80;1.00;;;;;;4936727;29;20676;-74
2022/01/03 01:08:53;;;;;;;3.57;1.80;;;10.80;1.00;;;;;;4937173;29;20719;-74
2022/01/03 01:11:21;;;;;;;5.87;2.03;;;10.80;1.00;;;;;;4937439;29;20207;-73
2022/01/03 01:13:47;;;;;;;6.17;2.03;;;10.90;10.30;;;;;;4937303;29;20270;-74
2022/01/03 01:16:14;;;;;;;6.53;2.00;;;10.90;61.80;;;;;;4936537;29;20682;-75
2022/01/03 01:18:41;;;;;;;6.03;1.90;;;11.10;1.00;;;;;;4937009;29;20171;-75
2022/01/03 01:21:07;;;;;;;3.67;2.03;;;11.00;99.90;;;;;;4937111;29;20180;-74
2022/01/03 01:23:33;;;;;;;5.63;2.20;;;11.00;1.00;;;;;;4937133;29;20174;-75
2022/01/03 01:28:43;;;;;;;4.33;2.03;;;11.00;7.50;;;;;;4936942;29;20652;-74
2022/01/03 01:31:11;;;;;;;4.00;1.80;;;10.90;99.90;;;;;;4936835;29;20179;-74
2022/01/03 01:33:39;;;;;;;7.37;2.40;;;10.80;99.90;;;;;;4937021;29;20262;-74
2022/01/03 01:36:06;;;;;;;4.80;2.23;;;10.80;1.00;;;;;;4936351;29;20207;-74
2022/01/03 01:38:37;;;;;;;6.97;2.10;;;10.90;99.90;;;;;;4936864;29;20190;-74
2022/01/03 01:41:06;;;;;;;5.27;2.00;;;10.90;99.90;;;;;;4936799;29;20226;-74
2022/01/03 01:43:34;;;;;;;5.43;2.30;;;10.80;1.00;;;;;;4936624;29;20207;-74
2022/01/03 01:46:04;;;;;;;4.60;2.03;;;10.70;79.70;;;;;;4936212;29;20203;-74
2022/01/03 01:48:32;;;;;;;4.07;2.07;;;10.70;1.00;;;;;;4936372;29;20238;-74
2022/01/03 01:51:00;;;;;;;7.37;2.63;;;10.70;99.90;;;;;;4936631;29;20262;-74
2022/01/03 01:53:27;;;;;;;4.03;2.07;;;10.70;99.90;;;;;;4936603;29;20186;-74
2022/01/03 01:55:55;;;;;;;5.00;2.17;;;10.70;95.10;;;;;;4935934;29;20247;-74
2022/01/03 01:58:23;;;;;;;3.73;2.17;;;10.70;99.90;;;;;;4936324;29;20186;-74
2022/01/03 02:00:58;;;;;;;3.40;2.03;;;10.60;1.00;;;;;;4935864;29;20183;-74
2022/01/03 02:03:26;;;;;;;4.63;2.13;;;10.80;99.90;;;;;;4936485;29;20210;-75
2022/01/03 02:06:05;;;;;;;5.83;2.10;;;10.80;99.90;;;;;;4935757;29;20203;-74
2022/01/03 02:08:56;;;;;;;4.87;1.87;;;10.90;1.00;;;;;;4936039;29;20210;-76
2022/01/03 02:11:49;;;;;;;6.03;2.37;;;10.90;1.00;;;;;;4936475;29;20179;-75
2022/01/03 02:14:15;;;;;;;9.80;2.10;;;10.80;99.90;;;;;;4935975;29;20252;-74
2022/01/03 02:16:42;;;;;;;5.50;2.07;;;10.90;1.00;;;;;;4935783;29;20183;-75
2022/01/03 02:19:07;;;;;;;6.77;2.47;;;10.80;99.90;;;;;;4936004;29;20185;-74
2022/01/03 02:21:33;;;;;;;7.00;2.20;;;10.70;99.90;;;;;;4936142;29;20274;-75
2022/01/03 02:23:58;;;;;;;3.60;2.40;;;10.70;99.90;;;;;;4936061;29;20679;-75
2022/01/03 02:26:24;;;;;;;5.67;2.10;;;10.70;1.00;;;;;;4935513;29;20438;-74
2022/01/03 02:28:50;;;;;;;6.53;2.50;;;10.70;1.00;;;;;;4935734;29;20561;-74
2022/01/03 02:31:17;;;;;;;8.27;2.50;;;10.70;1.00;;;;;;4918691;29;20189;-75
2022/01/03 02:33:44;;;;;;;4.73;2.10;;;10.70;1.00;;;;;;4935619;29;20198;-74
2022/01/03 02:36:09;;;;;;;4.73;2.40;;;10.80;1.00;;;;;;4935226;29;20211;-75
2022/01/03 02:38:35;;;;;;;5.57;2.10;;;10.70;1.00;;;;;;4935836;29;20259;-75
2022/01/03 02:41:00;;;;;;;3.40;1.77;;;10.70;1.00;;;;;;4935738;29;20667;-74
2022/01/03 02:43:26;;;;;;;6.50;2.27;;;10.60;1.00;;;;;;4935539;29;20222;-74
2022/01/03 02:45:52;;;;;;;4.27;2.20;;;10.70;1.00;;;;;;4934947;29;20238;-75
2022/01/03 02:48:22;;;;;;;5.07;2.20;;;10.60;1.00;;;;;;4935363;29;20692;-74
2022/01/03 02:50:48;;;;;;;5.40;2.30;;;10.60;1.00;;;;;;4935656;29;20194;-75
2022/01/03 02:53:14;;;;;;;6.73;2.13;;;10.60;1.00;;;;;;4935507;29;20179;-75
2022/01/03 02:55:40;;;;;;;4.13;2.00;;;10.60;1.00;;;;;;4934913;29;20692;-74
2022/01/03 02:58:08;;;;;;;3.57;1.90;;;10.60;1.00;;;;;;4935370;29;20212;-75
2022/01/03 03:00:38;;;;;;;4.20;1.97;;;10.50;1.00;;;;;;4935214;29;20187;-75
2022/01/03 03:03:03;;;;;;;4.90;2.00;;;10.50;1.00;;;;;;4935157;29;20772;-75
2022/01/03 03:05:30;;;;;;;4.80;2.10;;;10.60;1.00;;;;;;4934873;29;20203;-74
2022/01/03 03:07:55;;;;;;;5.77;1.90;;;10.60;1.00;;;;;;4935264;29;20206;-73
2022/01/03 03:10:24;;;;;;;5.40;2.20;;;10.60;1.00;;;;;;4935146;29;20183;-73
2022/01/03 03:12:50;;;;;;;6.17;2.30;;;10.60;1.00;;;;;;4934345;29;20179;-73
2022/01/03 03:15:16;;;;;;;5.17;2.00;;;10.60;1.00;;;;;;4934879;29;20197;-74
2022/01/03 03:17:44;;;;;;;5.87;2.37;;;10.60;1.00;;;;;;4935366;29;20242;-75
2022/01/03 03:20:25;;;;;;;4.90;2.20;;;10.50;57.90;;;;;;4935144;29;20183;-73
2022/01/03 03:22:51;;;;;;;7.47;2.43;;;10.50;79.30;;;;;;4935134;29;20187;-75
2022/01/03 03:25:28;;;;;;;4.47;1.73;;;10.50;99.00;;;;;;4934419;29;20203;-74
2022/01/03 03:27:57;;;;;;;5.53;2.27;;;10.50;21.50;;;;;;4934728;29;20187;-74
2022/01/03 03:30:25;;;;;;;6.20;2.00;;;10.50;90.70;;;;;;4934926;29;20191;-74
2022/01/03 03:32:54;;;;;;;6.40;2.20;;;10.40;99.90;;;;;;4934962;29;20328;-74
2022/01/03 03:35:21;;;;;;;5.43;2.50;;;10.30;99.90;;;;;;4934125;29;20294;-74
2022/01/03 03:37:46;;;;;;;5.40;1.90;;;10.30;99.90;;;;;;4934647;29;20275;-74
2022/01/03 03:40:13;;;;;;;3.57;2.07;;;10.20;99.90;;;;;;4935074;29;20233;-74
2022/01/03 03:42:39;;;;;;;4.53;1.90;;;10.20;99.90;;;;;;4934542;29;20668;-74
2022/01/03 03:45:05;;;;;;;7.23;2.30;;;10.20;99.90;;;;;;4933914;29;20684;-74
2022/01/03 03:47:31;;;;;;;4.43;1.80;;;10.20;99.90;;;;;;4934501;29;20649;-75
2022/01/03 03:49:57;;;;;;;4.63;2.07;;;10.10;99.90;;;;;;4934562;29;20217;-75
2022/01/03 03:52:22;;;;;;;7.47;2.17;;;10.00;99.90;;;;;;4934418;29;20178;-75
2022/01/03 03:54:48;;;;;;;5.07;1.90;;;10.00;99.90;;;;;;4933923;29;20195;-74
2022/01/03 03:57:14;;;;;;;5.83;2.10;;;9.90;99.90;;;;;;4934351;29;20182;-74
2022/01/03 03:59:39;;;;;;;6.53;2.20;;;9.80;1.00;;;;;;4934618;29;20186;-75
2022/01/03 04:02:05;;;;;;;4.53;2.00;;;9.70;1.00;;;;;;4934547;29;20266;-75
2022/01/03 04:04:32;;;;;;;4.87;2.33;;;9.80;99.90;;;;;;4933870;29;20179;-75
2022/01/03 04:06:57;;;;;;;5.37;1.90;;;9.80;99.90;;;;;;4934376;29;20171;-75
2022/01/03 04:09:23;;;;;;;4.30;2.43;;;9.80;99.90;;;;;;4934235;29;20277;-75
2022/01/03 04:11:49;;;;;;;4.73;2.20;;;9.70;99.90;;;;;;4934701;29;20176;-75
2022/01/03 04:14:15;;;;;;;5.33;2.03;;;9.70;99.90;;;;;;4934213;29;20191;-74
2022/01/03 04:16:41;;;;;;;5.30;1.83;;;9.70;99.90;;;;;;4934244;29;20186;-75
2022/01/03 04:19:06;;;;;;;5.77;2.17;;;9.60;99.90;;;;;;4934458;29;20202;-74
2022/01/03 04:21:32;;;;;;;4.27;1.90;;;9.80;1.00;;;;;;4934289;29;20179;-74
2022/01/03 04:23:58;;;;;;;6.47;2.00;;;10.00;1.00;;;;;;4935459;29;20234;-76
2022/01/03 04:26:24;;;;;;;6.83;2.50;;;10.00;99.90;;;;;;4937850;29;20199;-76
2022/01/03 04:28:50;;;;;;;5.73;2.10;;;9.80;1.00;;;;;;4938344;29;20577;-75
2022/01/03 04:31:15;;;;;;;4.93;2.10;;;9.70;1.00;;;;;;4938392;29;20664;-75
2022/01/03 04:33:41;;;;;;;6.97;2.27;;;9.70;1.00;;;;;;4938615;29;20594;-75
2022/01/03 04:36:09;;;;;;;5.10;2.23;;;9.70;1.00;;;;;;4937624;29;20218;-75
2022/01/03 04:38:35;;;;;;;3.67;1.90;;;9.60;77.00;;;;;;4937870;29;20195;-75
2022/01/03 04:41:01;;;;;;;5.00;2.00;;;9.60;99.90;;;;;;4937955;29;20179;-75
2022/01/03 04:43:27;;;;;;;5.07;2.20;;;9.70;87.30;;;;;;4937921;29;20610;-75
2022/01/03 04:45:54;;;;;;;6.67;2.30;;;9.60;99.90;;;;;;4937189;29;20199;-76
2022/01/03 04:48:20;;;;;;;5.20;2.50;;;9.60;99.90;;;;;;4937614;29;20648;-75
2022/01/03 04:50:46;;;;;;;6.73;2.37;;;9.80;1.00;;;;;;4937699;29;20270;-75
2022/01/03 04:53:12;;;;;;;6.73;2.43;;;9.80;1.00;;;;;;4937605;29;20179;-75
2022/01/03 04:55:37;;;;;;;8.87;2.67;;;9.90;1.00;;;;;;4937062;29;20221;-75
2022/01/03 04:58:03;;;;;;;7.37;2.97;;;9.90;1.00;;;;;;4937655;29;20287;-75
2022/01/03 05:00:28;;;;;;;6.87;2.10;;;9.90;1.00;;;;;;4933776;29;20218;-75
2022/01/03 05:02:54;;;;;;;4.70;2.07;;;9.90;1.00;;;;;;4918529;29;20232;-75
2022/01/03 05:05:19;;;;;;;4.53;2.10;;;9.90;31.90;;;;;;4917822;29;20207;-76
2022/01/03 05:07:46;;;;;;;5.27;2.10;;;9.90;99.90;;;;;;4918386;29;20216;-75
2022/01/03 05:10:11;;;;;;;5.00;2.13;;;9.80;99.90;;;;;;4919592;29;20223;-75
2022/01/03 05:12:37;;;;;;;7.83;2.20;;;9.80;99.90;;;;;;4918549;29;20263;-75
2022/01/03 05:15:03;;;;;;;6.03;2.10;;;9.90;99.90;;;;;;4917650;29;20307;-74
2022/01/03 05:17:29;;;;;;;6.90;2.30;;;9.90;99.90;;;;;;4918400;29;20240;-74
2022/01/03 05:19:55;;;;;;;9.73;2.40;;;9.90;99.90;;;;;;4918174;29;20672;-75
2022/01/03 05:22:20;;;;;;;7.33;2.00;;;10.00;99.90;;;;;;4918037;29;20269;-75
2022/01/03 05:24:46;;;;;;;9.23;2.50;;;10.00;99.90;;;;;;4917737;29;20669;-76
2022/01/03 05:27:12;;;;;;;7.07;2.83;;;9.90;1.00;;;;;;4918115;29;20191;-75
2022/01/03 05:29:37;;;;;;;13.70;8.53;;;9.80;1.00;;;;;;4917936;29;20224;-75
2022/01/03 05:32:03;;;;;;;5.60;2.30;;;9.90;1.00;;;;;;4918040;29;20649;-74
2022/01/03 05:34:28;;;;;;;6.67;2.73;;;9.90;1.00;;;;;;4917589;29;20184;-75
2022/01/03 05:36:54;;;;;;;7.90;2.37;;;9.80;1.00;;;;;;4954883;23;20317;-75
2022/01/03 05:39:19;;;;;;;9.00;2.57;;;9.80;1.00;;;;;;4955822;29;20218;-74
2022/01/03 05:41:45;;;;;;;6.77;2.57;;;9.80;1.00;;;;;;4956253;29;20253;-75
2022/01/03 05:44:11;;;;;;;5.43;2.60;;;9.90;1.00;;;;;;4955691;29;20170;-76
2022/01/03 05:46:36;;;;;;;5.27;1.90;;;9.80;99.90;;;;;;4955334;28;20209;-74
2022/01/03 05:49:03;;;;;;;7.00;2.40;;;9.90;99.90;;;;;;4955570;28;20202;-75
2022/01/03 05:51:28;;;;;;;6.93;2.37;;;9.70;1.00;;;;;;4955619;29;20595;-73
2022/01/03 05:53:54;;;;;;;4.77;1.90;;;9.60;1.00;;;;;;4955846;28;20182;-74
2022/01/03 05:56:20;;;;;;;6.40;2.40;;;9.50;1.00;;;;;;4954955;29;20201;-74
2022/01/03 05:58:46;;;;;;;8.63;2.30;;;9.50;1.00;;;;;;4955293;29;20304;-74
2022/01/03 06:01:12;;;;;;;6.53;2.23;;;9.40;1.00;;;;;;4955191;28;20182;-74
2022/01/03 06:03:39;;;;;;;7.03;2.37;;;9.40;1.00;;;;;;4955492;29;20199;-75
2022/01/03 06:08:35;;;;;;;6.50;2.53;;;9.60;1.00;;;;;;4955575;28;20714;-73
2022/01/03 06:11:01;;;;;;;7.10;2.23;;;9.50;1.00;;;;;;4955552;28;20186;-73
2022/01/03 06:13:27;;;;;;;6.30;2.97;;;9.50;1.00;;;;;;4955796;28;20183;-76
2022/01/03 06:15:53;;;;;;;5.83;1.87;;;9.50;1.00;;;;;;4954683;29;20210;-74
2022/01/03 06:18:19;;;;;;;6.73;2.10;;;9.50;1.00;;;;;;4955242;29;20261;-73
2022/01/03 06:20:46;;;;;;;8.13;2.30;;;9.60;99.90;;;;;;4954993;28;20699;-74
2022/01/03 06:23:14;;;;;;;5.60;2.10;;;9.80;99.90;;;;;;4955357;29;20191;-74
2022/01/03 06:25:40;;;;;;;6.97;2.40;;;9.80;99.90;;;;;;4954447;29;20258;-73
2022/01/03 06:28:08;;;;;;;7.07;2.10;;;9.80;65.50;;;;;;4954996;29;20179;-73
2022/01/03 06:30:38;;;;;;;9.07;2.47;;;9.90;1.00;;;;;;4955008;28;20664;-74
2022/01/03 06:33:05;;;;;;;11.57;2.40;;;9.80;1.00;;;;;;4945996;29;20182;-72
2022/01/03 06:35:32;;;;;;;9.97;2.47;;;9.90;1.00;;;;;;4940089;29;20191;-72
2022/01/03 06:37:58;;;;;;;8.33;2.10;;;9.80;1.00;;;;;;4935595;29;20207;-73
2022/01/03 06:40:25;;;;;;;6.07;2.37;;;9.80;1.00;;;;;;4937162;29;20266;-74
2022/01/03 06:42:51;;;;;;;6.70;2.03;;;9.80;1.00;;;;;;4922126;29;20246;-74
2022/01/03 06:45:17;;;;;;;6.97;2.33;;;9.80;1.00;;;;;;4939411;29;20207;-74
2022/01/03 06:47:42;;;;;;;6.07;2.00;;;9.80;1.00;;;;;;4936068;29;20179;-73
2022/01/03 06:50:08;;;;;;;5.37;1.97;;;9.90;1.00;;;;;;4941901;29;20222;-74
2022/01/03 06:52:34;;;;;;;4.83;1.90;;;9.90;1.00;;;;;;4938745;29;20253;-73
2022/01/03 06:55:00;;;;;;;11.70;5.57;;;9.90;45.70;;;;;;4934909;29;20221;-73
2022/01/03 06:57:25;;;;;;;7.07;2.40;;;9.80;99.90;;;;;;4935348;29;20186;-73
2022/01/03 06:59:51;;;;;;;9.20;2.43;;;9.70;99.90;;;;;;4935312;29;20530;-74
2022/01/03 07:02:16;;;;;;;5.93;1.90;;;9.70;99.90;;;;;;4935950;29;20325;-75
2022/01/03 07:04:42;;;;;;;5.40;2.83;;;9.70;99.90;;;;;;4934914;29;20210;-75
2022/01/03 07:07:07;;;;;;;8.37;2.33;;;9.70;99.90;;;;;;4934766;29;20231;-73
2022/01/03 07:09:33;;;;;;;7.83;2.90;;;9.60;1.00;;;;;;4935020;29;20219;-74
2022/01/03 07:11:59;;;;;;;8.40;2.30;;;9.70;99.90;;;;;;4934988;29;20186;-74
2022/01/03 07:19:37;;;;;;;8.20;2.17;;;9.60;1.00;;;;;;4935208;29;20348;-76
2022/01/03 07:22:04;;;;;;;4.57;1.83;;;9.70;1.00;;;;;;4934930;29;20234;-74
2022/01/03 07:24:35;;;;;;;6.53;2.00;;;9.70;1.00;;;;;;4934200;29;20369;-75
2022/01/03 07:27:02;;;;;;;8.23;2.23;;;9.70;1.00;;;;;;4935479;29;20179;-74
2022/01/03 07:29:28;;;;;;;10.33;2.37;;;9.70;1.00;;;;;;4935293;29;20207;-75
2022/01/03 07:31:53;;;;;;;6.20;2.20;;;9.70;1.00;;;;;;4934645;29;20183;-74
2022/01/03 07:34:19;;;;;;;10.90;2.73;;;9.70;1.00;;;;;;4934462;29;20247;-75
2022/01/03 07:36:44;;;;;;;7.47;2.53;;;9.80;99.90;;;;;;4934650;29;20675;-75
2022/01/03 07:39:10;;;;;;;6.73;2.50;;;9.70;1.00;;;;;;4934809;29;20179;-76
2022/01/03 07:41:36;;;;;;;6.00;2.17;;;9.70;1.00;;;;;;4937999;29;20210;-75
2022/01/03 07:44:01;;;;;;;11.10;2.90;;;9.70;1.00;;;;;;4943830;28;20194;-75
2022/01/03 07:46:27;;;;;;;4.53;2.03;;;9.80;1.00;;;;;;4942529;29;20289;-74
2022/01/03 07:48:52;;;;;;;8.07;3.07;;;9.80;1.00;;;;;;4944487;29;20194;-74
2022/01/03 07:51:18;;;;;;;7.83;2.73;;;9.80;99.90;;;;;;4943254;29;20182;-74
2022/01/03 07:53:43;;;;;;;10.27;3.03;;;9.90;99.90;;;;;;4943318;29;20179;-75
2022/01/03 07:56:10;;;;;;;5.73;2.40;;;9.90;99.90;;;;;;4944100;29;20186;-73
2022/01/03 07:58:36;;;;;;;8.37;2.50;;;9.90;99.90;;;;;;4942306;28;20179;-75
2022/01/03 08:01:02;;;;;;;8.80;2.20;;;9.90;1.00;;;;;;4940770;29;20679;-73
2022/01/03 08:03:28;;;;;;;7.77;2.47;;;9.90;1.00;;;;;;4934460;29;20183;-74
2022/01/03 08:05:54;;;;;;;11.73;2.67;;;9.90;1.00;;;;;;4933900;29;20213;-73
2022/01/03 08:08:19;;;;;;;6.60;2.10;;;9.90;1.00;;;;;;4934452;29;20179;-73
2022/01/03 08:10:46;;;;;;;8.43;2.30;;;9.90;1.00;;;;;;4934195;29;20266;-74
2022/01/03 08:13:12;;;;;;;10.57;2.40;;;9.80;1.00;;;;;;4944287;29;20709;-74
2022/01/03 08:15:38;;;;;;;6.30;2.63;;;9.80;1.00;;;;;;4953166;29;20551;-74
2022/01/03 08:18:04;;;;;;;8.13;2.10;;;9.80;1.00;;;;;;4944531;28;20632;-75
2022/01/03 08:20:30;;;;;;;7.90;2.47;;;9.80;1.00;;;;;;4942529;29;20175;-74
2022/01/03 08:22:55;;;;;;;8.53;2.20;;;9.90;1.00;;;;;;4944000;29;20174;-75
2022/01/03 08:25:21;;;;;;;6.13;2.40;;;9.90;1.00;;;;;;4942767;28;20312;-75
2022/01/03 08:27:46;;;;;;;6.83;2.20;;;9.90;1.00;;;;;;4953110;28;20206;-75
2022/01/03 08:30:12;;;;;;;5.57;2.10;;;10.00;1.00;;;;;;4946346;29;20206;-75
2022/01/03 08:32:38;;;;;;;3.93;2.10;;;10.10;99.90;;;;;;4936723;29;20234;-74
2022/01/03 08:35:03;;;;;;;9.23;4.50;;;10.10;99.90;;;;;;4933407;29;20684;-74
2022/01/03 08:37:29;;;;;;;5.50;2.40;;;10.20;99.90;;;;;;4933816;29;20238;-74
2022/01/03 08:39:55;;;;;;;10.13;2.13;;;10.20;99.90;;;;;;4936608;29;20185;-75
2022/01/03 08:42:20;;;;;;;5.23;2.03;;;10.30;1.00;;;;;;4951147;29;20179;-74
2022/01/03 08:44:47;;;;;;;8.57;2.63;;;10.40;1.00;;;;;;4952666;29;20260;-75
2022/01/03 08:47:12;;;;;;;6.27;2.53;;;10.50;1.00;;;;;;4953255;29;20174;-75
2022/01/03 08:49:38;;;;;;;8.50;2.80;;;10.60;1.00;;;;;;4952613;29;20218;-74
2022/01/03 08:52:05;;;;;;;9.47;2.10;;;10.70;99.90;;;;;;4933932;29;20219;-74
2022/01/03 08:54:31;;;;;;;6.97;2.67;;;10.60;1.00;;;;;;4933457;29;20270;-74
2022/01/03 08:56:57;;;;;;;6.30;3.03;;;10.60;95.40;;;;;;4933747;29;20262;-74
2022/01/03 08:59:23;;;;;;;7.53;2.43;;;10.60;1.00;;;;;;4933969;29;20322;-74
2022/01/03 09:01:48;;;;;;;6.57;2.53;;;10.70;1.00;;;;;;4933793;29;20196;-74
2022/01/03 09:04:14;;;;;;;6.17;2.10;;;10.70;1.00;;;;;;4933604;29;20266;-74
2022/01/03 09:06:39;;;;;;;7.03;2.90;;;10.70;15.10;;;;;;4933442;29;20274;-73
2022/01/03 09:09:06;;;;;;;8.43;2.87;;;10.70;58.50;;;;;;4933656;29;20219;-74
2022/01/03 09:11:32;;;;;;;7.13;2.40;;;10.80;1.00;;;;;;4935534;29;20536;-73
2022/01/03 09:13:58;;;;;;;4.83;1.93;;;10.80;42.70;;;;;;4944634;29;20237;-75
2022/01/03 09:16:23;;;;;;;8.13;2.73;;;10.80;99.90;;;;;;4955894;29;20253;-76
2022/01/03 09:18:49;;;;;;;5.23;2.33;;;10.80;1.00;;;;;;4955850;29;20185;-74
2022/01/03 09:21:15;;;;;;;6.63;2.40;;;10.80;99.90;;;;;;4945736;29;20175;-75
2022/01/03 09:23:46;;;;;;;7.40;2.20;;;10.80;1.00;;;;;;4947319;29;20222;-75
2022/01/03 09:28:56;;;;;;;6.33;2.33;;;10.90;35.50;;;;;;4946468;28;20628;-76
2022/01/03 09:31:36;;;;;;;6.57;2.33;;;10.90;1.00;;;;;;4947433;29;20182;-74
2022/01/03 09:34:04;;;;;;;8.30;2.40;;;10.80;1.00;;;;;;4946978;29;20181;-76
2022/01/03 09:36:31;;;;;;;4.93;1.70;;;10.90;99.90;;;;;;4943731;29;20699;-75
2022/01/03 09:38:58;;;;;;;8.20;2.40;;;10.90;99.90;;;;;;4952580;29;20179;-76
2022/01/03 09:41:26;;;;;;;6.80;2.20;;;10.90;99.90;;;;;;4937588;29;20711;-75
2022/01/03 09:44:00;;;;;;;7.87;2.20;;;11.00;99.90;;;;;;4936932;29;20249;-74
2022/01/03 09:46:38;;;;;;;7.73;2.00;;;11.00;1.00;;;;;;4935955;29;20207;-72
2022/01/03 09:49:06;;;;;;;7.73;2.23;;;10.90;99.90;;;;;;4938593;28;20552;-72
2022/01/03 09:51:32;;;;;;;33.43;18.93;;;10.90;1.00;;;;;;4939016;29;20183;-72
2022/01/03 09:54:16;;;;;;;12.07;5.60;;;11.00;99.90;;;;;;4936356;29;20594;-72
2022/01/03 09:56:42;;;;;;;5.00;2.47;;;11.00;1.00;;;;;;4935938;29;20652;-72
2022/01/03 09:59:09;;;;;;;5.37;2.67;;;11.00;1.00;;;;;;4936215;29;20207;-71
2022/01/03 10:01:35;;;;;;;6.90;2.17;;;11.00;1.00;;;;;;4941283;29;20189;-72
2022/01/03 10:04:02;;;;;;;7.17;2.47;;;11.00;1.00;;;;;;4953318;29;20182;-73
2022/01/03 10:06:28;;;;;;;9.53;2.10;;;11.00;1.00;;;;;;4937010;29;20203;-72
2022/01/03 10:08:54;;;;;;;5.37;1.97;;;11.00;1.00;;;;;;4936055;29;20231;-73
2022/01/03 10:11:22;;;;;;;6.93;2.00;;;11.00;1.00;;;;;;4936012;29;20183;-72
2022/01/03 10:13:48;;;;;;;5.83;2.17;;;11.10;1.00;;;;;;4935488;29;20194;-71
2022/01/03 10:16:14;;;;;;;5.90;2.00;;;11.00;1.00;;;;;;4935173;29;20198;-72
2022/01/03 10:18:40;;;;;;;7.13;2.37;;;11.00;1.00;;;;;;4935947;29;20262;-70
2022/01/03 10:21:07;;;;;;;9.90;2.17;;;11.20;1.00;;;;;;4938199;28;20185;-71
2022/01/03 10:23:33;;;;;;;5.30;2.10;;;11.10;99.90;;;;;;4945000;28;20371;-73
2022/01/03 10:26:20;;;;;;;5.97;1.97;;;11.10;99.90;;;;;;4943148;29;20680;-71
2022/01/03 10:28:45;;;;;;;5.00;2.47;;;11.10;1.00;;;;;;4937630;29;20214;-72
2022/01/03 10:31:22;;;;;;;5.63;2.73;;;11.10;1.00;;;;;;4938130;29;20648;-72
2022/01/03 10:34:03;;;;;;;9.00;2.70;;;11.00;1.00;;;;;;4938148;29;20242;-71
2022/01/03 10:36:30;;;;;;;8.77;4.70;;;11.10;1.00;;;;;;4944547;29;20247;-70
2022/01/03 10:38:58;;;;;;;7.80;3.30;;;11.00;1.00;;;;;;4945236;29;20703;-71
2022/01/03 10:41:25;;;;;;;8.53;3.47;;;11.00;1.00;;;;;;4935568;29;20197;-72
2022/01/03 10:43:52;;;;;;;8.60;3.17;;;11.00;99.90;;;;;;4949095;28;20222;-71
2022/01/03 10:46:26;;;;;;;6.47;2.87;;;11.00;1.00;;;;;;4946477;28;20726;-71
2022/01/03 10:48:56;;;;;;;6.40;2.67;;;11.00;99.90;;;;;;4937778;29;20265;-74
2022/01/03 10:51:27;;;;;;;7.70;2.20;;;11.00;99.90;;;;;;4935309;29;20203;-74
2022/01/03 10:53:54;;;;;;;8.53;2.27;;;11.00;58.50;;;;;;4936063;29;20259;-74
2022/01/03 10:56:24;;;;;;;5.73;2.00;;;11.00;99.90;;;;;;4943064;28;20237;-73
2022/01/03 10:58:58;;;;;;;7.70;2.50;;;10.90;99.90;;;;;;4938021;29;20187;-74
2022/01/03 11:01:29;;;;;;;7.50;2.40;;;10.90;99.90;;;;;;4935989;29;20716;-74
2022/01/03 11:03:58;;;;;;;5.83;2.20;;;11.00;1.00;;;;;;4948746;28;20199;-73
2022/01/03 11:11:43;;;;;;;8.03;2.53;;;11.00;1.00;;;;;;4948119;28;20230;-72
2022/01/03 11:14:28;;;;;;;7.40;2.27;;;11.00;1.00;;;;;;4952455;28;20232;-75
2022/01/03 11:16:54;;;;;;;8.13;1.87;;;11.10;99.90;;;;;;4937636;29;20266;-73
2022/01/03 11:19:39;;;;;;;6.67;2.00;;;11.10;1.00;;;;;;4948635;29;20225;-74
2022/01/03 11:22:05;;;;;;;10.93;2.60;;;11.10;1.00;;;;;;4945203;29;20187;-74
2022/01/03 11:24:32;;;;;;;9.03;2.57;;;11.10;1.00;;;;;;4942037;29;20180;-74
2022/01/03 11:26:58;;;;;;;8.37;2.30;;;11.20;1.00;;;;;;4953688;29;20182;-73
2022/01/03 11:29:28;;;;;;;4.20;1.97;;;11.20;1.00;;;;;;4954198;28;20588;-72
2022/01/03 11:31:54;;;;;;;6.10;2.27;;;11.20;99.90;;;;;;4945440;29;20187;-74
2022/01/03 11:34:24;;;;;;;5.17;2.03;;;11.20;1.00;;;;;;4959803;28;20524;-72
2022/01/03 11:36:50;;;;;;;11.53;2.63;;;11.20;1.00;;;;;;4962424;28;20213;-75
2022/01/03 11:39:19;;;;;;;5.80;1.93;;;11.20;1.00;;;;;;4956263;28;20179;-74
2022/01/03 11:41:45;;;;;;;6.43;2.33;;;11.30;99.90;;;;;;4945041;29;20222;-74
2022/01/03 11:44:12;;;;;;;8.17;2.17;;;11.30;1.00;;;;;;4935472;29;20194;-73
2022/01/03 11:46:43;;;;;;;7.13;2.27;;;11.30;99.90;;;;;;4936969;29;20194;-74
2022/01/03 11:49:09;;;;;;;6.13;1.83;;;11.30;99.90;;;;;;4939879;29;20213;-74
2022/01/03 11:51:36;;;;;;;5.23;2.50;;;11.30;99.90;;;;;;4934131;29;20177;-74
2022/01/03 11:54:04;;;;;;;13.33;7.07;;;11.30;1.00;;;;;;4934189;29;20211;-74
2022/01/03 11:56:31;;;;;;;10.27;3.63;;;11.30;1.00;;;;;;4939266;29;20206;-75
2022/01/03 12:04:40;;;;;;;6.53;2.10;;;11.30;99.90;;;;;;4952564;28;20804;-74
2022/01/03 12:07:15;;;;;;;6.27;2.13;;;11.30;99.90;;;;;;4953242;28;20244;-74
2022/01/03 12:09:43;;;;;;;9.57;2.20;;;11.30;1.00;;;;;;4953024;29;20217;-75
2022/01/03 12:12:27;;;;;;;6.50;2.20;;;11.30;1.00;;;;;;4953930;28;20181;-74
2022/01/03 12:14:53;;;;;;;6.00;1.90;;;11.30;17.50;;;;;;4938624;28;20206;-73
2022/01/03 12:17:18;;;;;;;4.33;1.70;;;11.30;1.00;;;;;;4953599;28;20261;-73
2022/01/03 12:19:46;;;;;;;6.13;1.90;;;11.30;99.90;;;;;;4939345;29;20201;-74
2022/01/03 12:22:17;;;;;;;4.87;1.97;;;11.30;1.00;;;;;;4953904;29;20185;-76
2022/01/03 12:24:45;;;;;;;3.97;2.10;;;11.30;1.00;;;;;;4950908;28;20290;-74
2022/01/03 12:27:13;;;;;;;6.77;2.30;;;11.30;99.90;;;;;;4944687;29;20178;-77
2022/01/03 12:29:57;;;;;;;9.97;4.37;;;11.30;1.00;;;;;;4948723;28;21184;-74
2022/01/03 12:33:07;;;;;;;14.60;6.83;;;11.40;1.00;;;;;;4948316;29;20230;-73
2022/01/03 12:35:38;;;;;;;9.37;2.87;;;11.40;1.00;;;;;;4953602;29;20272;-75
2022/01/03 12:38:04;;;;;;;7.57;2.47;;;11.40;99.90;;;;;;4953509;29;20731;-74
2022/01/03 12:40:45;;;;;;;5.20;2.13;;;11.40;99.90;;;;;;4953490;29;20198;-74
2022/01/03 12:43:13;;;;;;;7.67;2.40;;;11.40;99.90;;;;;;4953483;28;20186;-74
2022/01/03 12:45:44;;;;;;;4.97;2.10;;;11.40;99.90;;;;;;4937463;29;20737;-74
2022/01/03 12:50:53;;;;;;;6.40;2.00;;;11.40;99.90;;;;;;4947654;29;20589;-74
2022/01/03 12:53:27;;;;;;;6.33;2.30;;;11.40;1.00;;;;;;4947543;28;20248;-74
2022/01/03 12:55:55;;;;;;;8.27;2.30;;;11.40;1.00;;;;;;4949443;28;20243;-74
2022/01/03 12:58:21;;;;;;;7.70;2.50;;;11.40;99.90;;;;;;4957343;28;20229;-73
2022/01/03 13:01:10;;;;;;;5.33;2.03;;;11.40;1.00;;;;;;4956494;28;20171;-75
2022/01/03 13:03:39;;;;;;;3.80;2.00;;;11.40;1.00;;;;;;4956613;28;20273;-74
2022/01/03 13:06:19;;;;;;;5.23;1.93;;;11.30;1.00;;;;;;4943715;28;20299;-75
2022/01/03 13:08:47;;;;;;;6.07;1.90;;;11.30;1.00;;;;;;4949047;29;20271;-75
2022/01/03 13:11:27;;;;;;;5.77;2.03;;;11.30;1.00;;;;;;4956965;28;20199;-74
2022/01/03 13:13:55;;;;;;;8.50;2.13;;;11.30;1.00;;;;;;4956571;28;20185;-74
2022/01/03 13:16:21;;;;;;;7.80;1.90;;;11.30;1.00;;;;;;5036985;23;20227;-76
2022/01/03 13:19:19;;;;;;;6.57;2.43;;;11.30;99.90;;;;;;4933155;29;20721;-76
2022/01/03 13:21:49;;;;;;;5.57;2.37;;;11.30;99.90;;;;;;4921407;29;20231;-76
2022/01/03 13:24:32;;;;;;;7.93;2.43;;;11.40;88.40;;;;;;4932030;29;20283;-76
2022/01/03 13:26:59;;;;;;;6.87;2.50;;;11.30;99.90;;;;;;4918245;29;20180;-75